sensor_id;sensor_type;location;lat;lon;timestamp;temperature;humidity
20141;DHT22;10231;47.702;9.826;2023-03-01T00:02:19;0.60;99.90
20141;DHT22;10231;47.702;9.826;2023-03-01T00:04:45;0.60;99.90
20141;DHT22;10231;47.702;9.826;2023-03-01T00:07:10;0.70;99.90
20141;DHT22;10231;47.702;9.826;2023-03-01T00:09:36;0.70;99.90
20141;DHT22;10231;47.702;9.826;2023-03-01T00:12:03;0.70;99.90
20141;DHT22;10231;47.702;9.826;2023-03-01T00:14:29;0.70;99.90
20141;DHT22;10231;47.702;9.826;2023-03-01T00:16:54;0.70;99.90
20141;DHT22;10231;47.702;9.826;2023-03-01T00:19:20;0.70;99.90
20141;DHT22;10231;47.702;9.826;2023-03-01T00:21:47;0.80;99.90
20141;DHT22;10231;47.702;9.826;2023-03-01T00:24:13;0.80;99.90
20141;DHT22;10231;47.702;9.826;2023-03-01T00:26:39;0.80;99.90
20141;DHT22;10231;47.702;9.826;2023-03-01T00:29:05;0.80;99.90
20141;DHT22;10231;47.702;9.826;2023-03-01T00:31:32;0.80;99.90
20141;DHT22;10231;47.702;9.826;2023-03-01T00:34:01;0.70;99.90
20141;DHT22;10231;47.702;9.826;2023-03-01T00:36:30;0.70;99.90
20141;DHT22;10231;47.702;9.826;2023-03-01T00:38:56;0.80;99.90
20141;DHT22;10231;47.702;9.826;2023-03-01T00:41:22;0.80;99.90
20141;DHT22;10231;47.702;9.826;2023-03-01T00:43:49;0.80;99.90
20141;DHT22;10231;47.702;9.826;2023-03-01T00:46:18;0.80;99.90
20141;DHT22;10231;47.702;9.826;2023-03-01T00:48:44;0.80;99.90
20141;DHT22;10231;47.702;9.826;2023-03-01T00:51:16;0.80;99.90
20141;DHT22;10231;47.702;9.826;2023-03-01T00:53:42;0.90;99.90
20141;DHT22;10231;47.702;9.826;2023-03-01T00:56:10;0.90;99.90
20141;DHT22;10231;47.702;9.826;2023-03-01T00:58:36;0.90;99.90
20141;DHT22;10231;47.702;9.826;2023-03-01T01:01:08;0.90;99.90
20141;DHT22;10231;47.702;9.826;2023-03-01T01:03:43;0.90;99.90
20141;DHT22;10231;47.702;9.826;2023-03-01T01:06:17;0.90;99.90
20141;DHT22;10231;47.702;9.826;2023-03-01T01:08:42;1.00;99.90
20141;DHT22;10231;47.702;9.826;2023-03-01T01:11:12;0.90;99.90
20141;DHT22;10231;47.702;9.826;2023-03-01T01:13:39;0.90;99.90
20141;DHT22;10231;47.702;9.826;2023-03-01T01:16:05;0.90;99.90
20141;DHT22;10231;47.702;9.826;2023-03-01T01:18:31;1.00;99.90
20141;DHT22;10231;47.702;9.826;2023-03-01T01:20:56;0.90;99.90
20141;DHT22;10231;47.702;9.826;2023-03-01T01:23:22;0.90;99.90
20141;DHT22;10231;47.702;9.826;2023-03-01T01:25:48;0.90;99.90
20141;DHT22;10231;47.702;9.826;2023-03-01T01:28:13;0.90;99.90
20141;DHT22;10231;47.702;9.826;2023-03-01T01:30:39;0.90;99.90
20141;DHT22;10231;47.702;9.826;2023-03-01T01:33:04;1.00;99.90
20141;DHT22;10231;47.702;9.826;2023-03-01T01:35:30;0.90;99.90
20141;DHT22;10231;47.702;9.826;2023-03-01T01:37:55;1.00;99.90
20141;DHT22;10231;47.702;9.826;2023-03-01T01:40:21;1.00;99.90
20141;DHT22;10231;47.702;9.826;2023-03-01T01:42:47;1.00;99.90
20141;DHT22;10231;47.702;9.826;2023-03-01T01:45:33;1.00;99.90
20141;DHT22;10231;47.702;9.826;2023-03-01T01:48:06;1.00;99.90
20141;DHT22;10231;47.702;9.826;2023-03-01T01:50:38;0.90;99.90
20141;DHT22;10231;47.702;9.826;2023-03-01T01:53:19;1.00;99.90
20141;DHT22;10231;47.702;9.826;2023-03-01T01:55:49;1.00;99.90
20141;DHT22;10231;47.702;9.826;2023-03-01T01:58:18;1.00;99.90
20141;DHT22;10231;47.702;9.826;2023-03-01T02:00:44;1.00;99.90
20141;DHT22;10231;47.702;9.826;2023-03-01T02:03:13;1.00;99.90
20141;DHT22;10231;47.702;9.826;2023-03-01T02:08:26;1.00;99.90
20141;DHT22;10231;47.702;9.826;2023-03-01T02:10:53;1.00;99.90
20141;DHT22;10231;47.702;9.826;2023-03-01T02:13:20;1.00;99.90
20141;DHT22;10231;47.702;9.826;2023-03-01T02:15:45;1.00;99.90
20141;DHT22;10231;47.702;9.826;2023-03-01T02:18:14;0.90;99.90
20141;DHT22;10231;47.702;9.826;2023-03-01T02:23:38;0.90;99.90
20141;DHT22;10231;47.702;9.826;2023-03-01T02:26:09;1.00;99.90
20141;DHT22;10231;47.702;9.826;2023-03-01T02:28:41;1.00;99.90
20141;DHT22;10231;47.702;9.826;2023-03-01T02:31:09;0.90;99.90
20141;DHT22;10231;47.702;9.826;2023-03-01T02:33:55;1.00;99.90
20141;DHT22;10231;47.702;9.826;2023-03-01T02:36:28;1.00;99.90
20141;DHT22;10231;47.702;9.826;2023-03-01T02:39:00;1.00;99.90
20141;DHT22;10231;47.702;9.826;2023-03-01T02:41:29;1.00;99.90
20141;DHT22;10231;47.702;9.826;2023-03-01T02:43:56;1.00;99.90
20141;DHT22;10231;47.702;9.826;2023-03-01T02:46:24;1.00;99.90
20141;DHT22;10231;47.702;9.826;2023-03-01T02:48:53;1.00;99.90
20141;DHT22;10231;47.702;9.826;2023-03-01T02:51:22;1.00;99.90
20141;DHT22;10231;47.702;9.826;2023-03-01T02:54:05;0.90;99.90
20141;DHT22;10231;47.702;9.826;2023-03-01T02:56:33;0.90;99.90
20141;DHT22;10231;47.702;9.826;2023-03-01T02:58:59;0.90;99.90
20141;DHT22;10231;47.702;9.826;2023-03-01T03:01:27;1.00;99.90
20141;DHT22;10231;47.702;9.826;2023-03-01T03:04:04;1.00;99.90
20141;DHT22;10231;47.702;9.826;2023-03-01T03:06:30;1.00;99.90
20141;DHT22;10231;47.702;9.826;2023-03-01T03:08:56;0.90;99.90
20141;DHT22;10231;47.702;9.826;2023-03-01T03:11:21;0.90;99.90
20141;DHT22;10231;47.702;9.826;2023-03-01T03:13:47;0.90;99.90
20141;DHT22;10231;47.702;9.826;2023-03-01T03:16:14;0.90;99.90
20141;DHT22;10231;47.702;9.826;2023-03-01T03:18:39;0.90;99.90
20141;DHT22;10231;47.702;9.826;2023-03-01T03:21:08;0.90;99.90
20141;DHT22;10231;47.702;9.826;2023-03-01T03:23:35;0.90;99.90
20141;DHT22;10231;47.702;9.826;2023-03-01T03:26:01;1.00;99.90
20141;DHT22;10231;47.702;9.826;2023-03-01T03:28:30;0.90;99.90
20141;DHT22;10231;47.702;9.826;2023-03-01T03:30:56;1.00;99.90
20141;DHT22;10231;47.702;9.826;2023-03-01T03:33:21;1.00;99.90
20141;DHT22;10231;47.702;9.826;2023-03-01T03:35:48;1.00;99.90
20141;DHT22;10231;47.702;9.826;2023-03-01T03:38:16;0.90;99.90
20141;DHT22;10231;47.702;9.826;2023-03-01T03:40:45;0.90;99.90
20141;DHT22;10231;47.702;9.826;2023-03-01T03:43:22;0.90;99.90
20141;DHT22;10231;47.702;9.826;2023-03-01T03:45:49;0.90;99.90
20141;DHT22;10231;47.702;9.826;2023-03-01T03:48:16;0.90;99.90
20141;DHT22;10231;47.702;9.826;2023-03-01T03:50:47;0.90;99.90
20141;DHT22;10231;47.702;9.826;2023-03-01T03:53:13;0.90;99.90
20141;DHT22;10231;47.702;9.826;2023-03-01T03:55:38;0.90;99.90
20141;DHT22;10231;47.702;9.826;2023-03-01T03:58:09;0.90;99.90
20141;DHT22;10231;47.702;9.826;2023-03-01T04:00:40;0.90;99.90
20141;DHT22;10231;47.702;9.826;2023-03-01T04:03:07;0.90;99.90
20141;DHT22;10231;47.702;9.826;2023-03-01T04:05:33;0.90;99.90
20141;DHT22;10231;47.702;9.826;2023-03-01T04:07:59;0.90;99.90
20141;DHT22;10231;47.702;9.826;2023-03-01T04:10:29;0.90;99.90
20141;DHT22;10231;47.702;9.826;2023-03-01T04:12:55;1.00;99.90
20141;DHT22;10231;47.702;9.826;2023-03-01T04:15:25;1.00;99.90
20141;DHT22;10231;47.702;9.826;2023-03-01T04:17:52;1.00;99.90
20141;DHT22;10231;47.702;9.826;2023-03-01T04:20:21;1.00;99.90
20141;DHT22;10231;47.702;9.826;2023-03-01T04:22:58;1.00;99.90
20141;DHT22;10231;47.702;9.826;2023-03-01T04:25:24;0.90;99.90
20141;DHT22;10231;47.702;9.826;2023-03-01T04:27:50;1.00;99.90
20141;DHT22;10231;47.702;9.826;2023-03-01T04:30:15;1.00;99.90
20141;DHT22;10231;47.702;9.826;2023-03-01T04:32:41;1.00;99.90
20141;DHT22;10231;47.702;9.826;2023-03-01T04:35:08;1.00;99.90
20141;DHT22;10231;47.702;9.826;2023-03-01T04:37:33;1.10;99.90
20141;DHT22;10231;47.702;9.826;2023-03-01T04:40:00;1.10;99.90
20141;DHT22;10231;47.702;9.826;2023-03-01T04:42:26;1.10;99.90
20141;DHT22;10231;47.702;9.826;2023-03-01T04:44:52;1.10;99.90
20141;DHT22;10231;47.702;9.826;2023-03-01T04:47:17;1.10;99.90
20141;DHT22;10231;47.702;9.826;2023-03-01T04:49:43;1.10;99.90
20141;DHT22;10231;47.702;9.826;2023-03-01T04:52:08;1.20;99.90
20141;DHT22;10231;47.702;9.826;2023-03-01T04:54:35;1.10;99.90
20141;DHT22;10231;47.702;9.826;2023-03-01T04:57:02;1.10;99.90
20141;DHT22;10231;47.702;9.826;2023-03-01T04:59:28;1.10;99.90
20141;DHT22;10231;47.702;9.826;2023-03-01T05:01:55;1.10;99.90
20141;DHT22;10231;47.702;9.826;2023-03-01T05:04:24;1.10;99.90
20141;DHT22;10231;47.702;9.826;2023-03-01T05:06:50;1.10;99.90
20141;DHT22;10231;47.702;9.826;2023-03-01T05:09:16;1.10;99.90
20141;DHT22;10231;47.702;9.826;2023-03-01T05:11:42;1.10;99.90
20141;DHT22;10231;47.702;9.826;2023-03-01T05:14:09;1.00;99.90
20141;DHT22;10231;47.702;9.826;2023-03-01T05:16:35;1.00;99.90
20141;DHT22;10231;47.702;9.826;2023-03-01T05:19:02;1.10;99.90
20141;DHT22;10231;47.702;9.826;2023-03-01T05:21:39;1.10;99.90
20141;DHT22;10231;47.702;9.826;2023-03-01T05:24:23;1.00;99.90
20141;DHT22;10231;47.702;9.826;2023-03-01T05:26:49;1.10;99.90
20141;DHT22;10231;47.702;9.826;2023-03-01T05:29:17;1.00;99.90
20141;DHT22;10231;47.702;9.826;2023-03-01T05:31:43;1.00;99.90
20141;DHT22;10231;47.702;9.826;2023-03-01T05:34:09;1.00;99.90
20141;DHT22;10231;47.702;9.826;2023-03-01T05:36:34;1.00;99.90
20141;DHT22;10231;47.702;9.826;2023-03-01T05:39:00;1.00;99.90
20141;DHT22;10231;47.702;9.826;2023-03-01T05:41:26;1.00;99.90
20141;DHT22;10231;47.702;9.826;2023-03-01T05:43:51;1.00;99.90
20141;DHT22;10231;47.702;9.826;2023-03-01T05:46:17;1.00;99.90
20141;DHT22;10231;47.702;9.826;2023-03-01T05:48:42;1.10;99.90
20141;DHT22;10231;47.702;9.826;2023-03-01T05:51:09;1.00;99.90
20141;DHT22;10231;47.702;9.826;2023-03-01T05:53:34;1.00;99.90
20141;DHT22;10231;47.702;9.826;2023-03-01T05:56:03;1.00;99.90
20141;DHT22;10231;47.702;9.826;2023-03-01T05:58:29;1.00;99.90
20141;DHT22;10231;47.702;9.826;2023-03-01T06:00:54;1.00;99.90
20141;DHT22;10231;47.702;9.826;2023-03-01T06:03:20;1.00;99.90
20141;DHT22;10231;47.702;9.826;2023-03-01T06:05:46;0.90;99.90
20141;DHT22;10231;47.702;9.826;2023-03-01T06:08:12;0.90;99.90
20141;DHT22;10231;47.702;9.826;2023-03-01T06:10:37;1.00;99.90
20141;DHT22;10231;47.702;9.826;2023-03-01T06:13:03;0.90;99.90
20141;DHT22;10231;47.702;9.826;2023-03-01T06:15:29;0.90;99.90
20141;DHT22;10231;47.702;9.826;2023-03-01T06:17:55;1.00;99.90
20141;DHT22;10231;47.702;9.826;2023-03-01T06:20:27;0.90;99.90
20141;DHT22;10231;47.702;9.826;2023-03-01T06:22:52;1.00;99.90
20141;DHT22;10231;47.702;9.826;2023-03-01T06:25:20;1.00;99.90
20141;DHT22;10231;47.702;9.826;2023-03-01T06:27:47;1.00;99.90
20141;DHT22;10231;47.702;9.826;2023-03-01T06:30:16;1.00;99.90
20141;DHT22;10231;47.702;9.826;2023-03-01T06:32:42;1.00;99.90
20141;DHT22;10231;47.702;9.826;2023-03-01T06:35:10;1.00;99.90
20141;DHT22;10231;47.702;9.826;2023-03-01T06:37:36;1.00;99.90
20141;DHT22;10231;47.702;9.826;2023-03-01T06:40:06;1.10;99.90
20141;DHT22;10231;47.702;9.826;2023-03-01T06:42:39;1.10;99.90
20141;DHT22;10231;47.702;9.826;2023-03-01T06:45:06;1.10;99.90
20141;DHT22;10231;47.702;9.826;2023-03-01T06:47:32;1.10;99.90
20141;DHT22;10231;47.702;9.826;2023-03-01T06:49:59;1.10;99.90
20141;DHT22;10231;47.702;9.826;2023-03-01T06:52:25;1.10;99.90
20141;DHT22;10231;47.702;9.826;2023-03-01T06:54:51;1.10;99.90
20141;DHT22;10231;47.702;9.826;2023-03-01T06:57:17;1.00;99.90
20141;DHT22;10231;47.702;9.826;2023-03-01T06:59:43;1.00;99.90
20141;DHT22;10231;47.702;9.826;2023-03-01T07:02:12;1.10;99.90
20141;DHT22;10231;47.702;9.826;2023-03-01T07:04:38;1.00;99.90
20141;DHT22;10231;47.702;9.826;2023-03-01T07:07:04;1.00;99.90
20141;DHT22;10231;47.702;9.826;2023-03-01T07:09:30;1.00;99.90
20141;DHT22;10231;47.702;9.826;2023-03-01T07:11:56;1.00;99.90
20141;DHT22;10231;47.702;9.826;2023-03-01T07:14:22;1.00;99.90
20141;DHT22;10231;47.702;9.826;2023-03-01T07:16:50;1.00;99.90
20141;DHT22;10231;47.702;9.826;2023-03-01T07:19:15;1.00;99.90
20141;DHT22;10231;47.702;9.826;2023-03-01T07:21:41;1.10;99.90
20141;DHT22;10231;47.702;9.826;2023-03-01T07:24:07;1.00;99.90
20141;DHT22;10231;47.702;9.826;2023-03-01T07:26:33;1.10;99.90
20141;DHT22;10231;47.702;9.826;2023-03-01T07:29:00;1.10;99.90
20141;DHT22;10231;47.702;9.826;2023-03-01T07:31:26;1.10;99.90
20141;DHT22;10231;47.702;9.826;2023-03-01T07:33:54;1.10;99.90
20141;DHT22;10231;47.702;9.826;2023-03-01T07:36:20;1.10;99.90
20141;DHT22;10231;47.702;9.826;2023-03-01T07:38:45;1.10;99.90
20141;DHT22;10231;47.702;9.826;2023-03-01T07:41:11;1.10;99.90
20141;DHT22;10231;47.702;9.826;2023-03-01T07:43:37;1.10;99.90
20141;DHT22;10231;47.702;9.826;2023-03-01T07:46:03;1.10;99.90
20141;DHT22;10231;47.702;9.826;2023-03-01T07:48:30;1.10;99.90
20141;DHT22;10231;47.702;9.826;2023-03-01T07:51:00;1.10;99.90
20141;DHT22;10231;47.702;9.826;2023-03-01T07:53:26;1.10;99.90
20141;DHT22;10231;47.702;9.826;2023-03-01T07:56:07;1.10;99.90
20141;DHT22;10231;47.702;9.826;2023-03-01T07:58:38;1.10;99.90
20141;DHT22;10231;47.702;9.826;2023-03-01T08:01:09;1.20;99.90
20141;DHT22;10231;47.702;9.826;2023-03-01T08:03:35;1.10;99.90
20141;DHT22;10231;47.702;9.826;2023-03-01T08:06:03;1.10;99.90
20141;DHT22;10231;47.702;9.826;2023-03-01T08:08:29;1.10;99.90
20141;DHT22;10231;47.702;9.826;2023-03-01T08:10:59;1.10;99.90
20141;DHT22;10231;47.702;9.826;2023-03-01T08:13:26;1.10;99.90
20141;DHT22;10231;47.702;9.826;2023-03-01T08:15:52;1.20;99.90
20141;DHT22;10231;47.702;9.826;2023-03-01T08:18:19;1.20;99.90
20141;DHT22;10231;47.702;9.826;2023-03-01T08:20:45;1.10;99.90
20141;DHT22;10231;47.702;9.826;2023-03-01T08:23:11;1.10;99.90
20141;DHT22;10231;47.702;9.826;2023-03-01T08:25:36;1.10;99.90
20141;DHT22;10231;47.702;9.826;2023-03-01T08:28:02;1.10;99.90
20141;DHT22;10231;47.702;9.826;2023-03-01T08:30:28;1.10;99.90
20141;DHT22;10231;47.702;9.826;2023-03-01T08:32:54;1.10;99.90
20141;DHT22;10231;47.702;9.826;2023-03-01T08:35:20;1.10;99.90
20141;DHT22;10231;47.702;9.826;2023-03-01T08:37:45;1.20;99.90
20141;DHT22;10231;47.702;9.826;2023-03-01T08:40:11;1.20;99.90
20141;DHT22;10231;47.702;9.826;2023-03-01T08:42:39;1.20;99.90
20141;DHT22;10231;47.702;9.826;2023-03-01T08:45:05;1.20;99.90
20141;DHT22;10231;47.702;9.826;2023-03-01T08:47:31;1.20;99.90
20141;DHT22;10231;47.702;9.826;2023-03-01T08:49:56;1.20;99.90
20141;DHT22;10231;47.702;9.826;2023-03-01T08:52:22;1.30;99.90
20141;DHT22;10231;47.702;9.826;2023-03-01T08:54:49;1.30;99.90
20141;DHT22;10231;47.702;9.826;2023-03-01T08:57:15;1.20;99.90
20141;DHT22;10231;47.702;9.826;2023-03-01T08:59:41;1.30;99.90
20141;DHT22;10231;47.702;9.826;2023-03-01T09:02:13;1.30;99.90
20141;DHT22;10231;47.702;9.826;2023-03-01T09:04:39;1.30;99.90
20141;DHT22;10231;47.702;9.826;2023-03-01T09:07:05;1.30;99.90
20141;DHT22;10231;47.702;9.826;2023-03-01T09:09:30;1.40;99.90
20141;DHT22;10231;47.702;9.826;2023-03-01T09:11:56;1.40;99.90
20141;DHT22;10231;47.702;9.826;2023-03-01T09:14:22;1.30;99.90
20141;DHT22;10231;47.702;9.826;2023-03-01T09:16:47;1.30;99.90
20141;DHT22;10231;47.702;9.826;2023-03-01T09:19:13;1.30;99.90
20141;DHT22;10231;47.702;9.826;2023-03-01T09:21:40;1.30;99.90
20141;DHT22;10231;47.702;9.826;2023-03-01T09:24:15;1.40;99.90
20141;DHT22;10231;47.702;9.826;2023-03-01T09:26:41;1.40;99.90
20141;DHT22;10231;47.702;9.826;2023-03-01T09:29:06;1.50;99.90
20141;DHT22;10231;47.702;9.826;2023-03-01T09:31:32;1.40;99.90
20141;DHT22;10231;47.702;9.826;2023-03-01T09:33:58;1.50;99.90
20141;DHT22;10231;47.702;9.826;2023-03-01T09:36:24;1.50;99.90
20141;DHT22;10231;47.702;9.826;2023-03-01T09:38:52;1.50;99.90
20141;DHT22;10231;47.702;9.826;2023-03-01T09:43:51;1.50;99.90
20141;DHT22;10231;47.702;9.826;2023-03-01T09:46:22;1.50;99.90
20141;DHT22;10231;47.702;9.826;2023-03-01T09:48:57;1.50;99.90
20141;DHT22;10231;47.702;9.826;2023-03-01T09:51:33;1.50;99.90
20141;DHT22;10231;47.702;9.826;2023-03-01T09:54:01;1.50;99.90
20141;DHT22;10231;47.702;9.826;2023-03-01T09:56:33;1.60;99.90
20141;DHT22;10231;47.702;9.826;2023-03-01T10:04:47;1.70;99.90
20141;DHT22;10231;47.702;9.826;2023-03-01T10:09:58;1.70;99.90
20141;DHT22;10231;47.702;9.826;2023-03-01T10:12:27;1.70;99.90
20141;DHT22;10231;47.702;9.826;2023-03-01T10:15:11;1.70;99.90
20141;DHT22;10231;47.702;9.826;2023-03-01T10:17:44;1.70;99.90
20141;DHT22;10231;47.702;9.826;2023-03-01T10:20:44;1.70;99.90
20141;DHT22;10231;47.702;9.826;2023-03-01T10:23:12;1.70;99.90
20141;DHT22;10231;47.702;9.826;2023-03-01T10:31:25;1.80;99.90
20141;DHT22;10231;47.702;9.826;2023-03-01T10:33:54;1.80;99.90
20141;DHT22;10231;47.702;9.826;2023-03-01T10:36:22;1.80;99.90
20141;DHT22;10231;47.702;9.826;2023-03-01T10:38:56;1.80;99.90
20141;DHT22;10231;47.702;9.826;2023-03-01T10:41:24;1.80;99.90
20141;DHT22;10231;47.702;9.826;2023-03-01T10:43:54;1.80;99.90
20141;DHT22;10231;47.702;9.826;2023-03-01T10:46:24;1.80;99.90
20141;DHT22;10231;47.702;9.826;2023-03-01T10:49:18;1.90;99.90
20141;DHT22;10231;47.702;9.826;2023-03-01T10:51:46;1.90;99.90
20141;DHT22;10231;47.702;9.826;2023-03-01T10:54:32;1.90;99.90
20141;DHT22;10231;47.702;9.826;2023-03-01T10:57:03;1.90;99.90
20141;DHT22;10231;47.702;9.826;2023-03-01T10:59:34;1.80;99.90
20141;DHT22;10231;47.702;9.826;2023-03-01T11:07:56;1.90;99.90
20141;DHT22;10231;47.702;9.826;2023-03-01T11:10:25;2.00;99.90
20141;DHT22;10231;47.702;9.826;2023-03-01T11:13:09;2.00;99.90
20141;DHT22;10231;47.702;9.826;2023-03-01T11:15:39;2.00;99.90
20141;DHT22;10231;47.702;9.826;2023-03-01T11:18:19;2.00;99.90
20141;DHT22;10231;47.702;9.826;2023-03-01T11:20:45;2.00;99.90
20141;DHT22;10231;47.702;9.826;2023-03-01T11:23:13;2.00;99.90
20141;DHT22;10231;47.702;9.826;2023-03-01T11:26:05;2.00;99.90
20141;DHT22;10231;47.702;9.826;2023-03-01T11:28:29;2.00;99.90
20141;DHT22;10231;47.702;9.826;2023-03-01T11:31:08;2.00;99.90
20141;DHT22;10231;47.702;9.826;2023-03-01T11:38:53;2.00;99.90
20141;DHT22;10231;47.702;9.826;2023-03-01T11:41:28;2.00;99.90
20141;DHT22;10231;47.702;9.826;2023-03-01T11:44:08;2.00;99.90
20141;DHT22;10231;47.702;9.826;2023-03-01T11:46:51;2.00;99.90
20141;DHT22;10231;47.702;9.826;2023-03-01T11:57:52;2.00;99.90
20141;DHT22;10231;47.702;9.826;2023-03-01T12:03:21;2.00;99.90
20141;DHT22;10231;47.702;9.826;2023-03-01T12:06:16;2.10;99.90
20141;DHT22;10231;47.702;9.826;2023-03-01T12:17:17;2.10;99.90
20141;DHT22;10231;47.702;9.826;2023-03-01T12:20:02;2.20;99.90
20141;DHT22;10231;47.702;9.826;2023-03-01T12:22:57;2.20;99.90
20141;DHT22;10231;47.702;9.826;2023-03-01T12:25:35;2.20;99.90
20141;DHT22;10231;47.702;9.826;2023-03-01T12:30:59;2.20;99.90
20141;DHT22;10231;47.702;9.826;2023-03-01T12:38:50;2.20;99.90
20141;DHT22;10231;47.702;9.826;2023-03-01T12:41:43;2.30;99.90
20141;DHT22;10231;47.702;9.826;2023-03-01T12:47:19;2.30;99.90
20141;DHT22;10231;47.702;9.826;2023-03-01T12:49:59;2.30;99.90
20141;DHT22;10231;47.702;9.826;2023-03-01T12:52:37;2.20;99.90
20141;DHT22;10231;47.702;9.826;2023-03-01T12:55:17;2.20;99.90
20141;DHT22;10231;47.702;9.826;2023-03-01T13:03:46;2.20;99.90
20141;DHT22;10231;47.702;9.826;2023-03-01T13:08:57;2.30;99.90
20141;DHT22;10231;47.702;9.826;2023-03-01T13:11:25;2.30;99.90
20141;DHT22;10231;47.702;9.826;2023-03-01T13:13:51;2.30;99.90
20141;DHT22;10231;47.702;9.826;2023-03-01T13:16:39;2.30;99.90
20141;DHT22;10231;47.702;9.826;2023-03-01T13:19:20;2.30;99.90
20141;DHT22;10231;47.702;9.826;2023-03-01T13:21:47;2.40;99.90
20141;DHT22;10231;47.702;9.826;2023-03-01T13:29:50;2.50;99.90
20141;DHT22;10231;47.702;9.826;2023-03-01T13:32:36;2.50;99.90
20141;DHT22;10231;47.702;9.826;2023-03-01T13:37:44;2.50;99.90
20141;DHT22;10231;47.702;9.826;2023-03-01T13:42:51;2.50;99.90
20141;DHT22;10231;47.702;9.826;2023-03-01T13:48:16;2.60;99.90
20141;DHT22;10231;47.702;9.826;2023-03-01T13:50:53;2.60;99.90
20141;DHT22;10231;47.702;9.826;2023-03-01T13:53:23;2.60;99.90
20141;DHT22;10231;47.702;9.826;2023-03-01T13:56:08;2.70;99.90
20141;DHT22;10231;47.702;9.826;2023-03-01T13:58:58;2.70;99.90
20141;DHT22;10231;47.702;9.826;2023-03-01T14:01:27;2.70;99.90
20141;DHT22;10231;47.702;9.826;2023-03-01T14:03:53;4.00;99.90
20141;DHT22;10231;47.702;9.826;2023-03-01T14:06:31;2.70;99.90
20141;DHT22;10231;47.702;9.826;2023-03-01T14:09:05;2.70;99.90
20141;DHT22;10231;47.702;9.826;2023-03-01T14:14:44;2.70;99.90
20141;DHT22;10231;47.702;9.826;2023-03-01T14:17:39;2.80;99.90
20141;DHT22;10231;47.702;9.826;2023-03-01T14:20:20;2.80;99.90
20141;DHT22;10231;47.702;9.826;2023-03-01T14:22:48;2.80;99.90
20141;DHT22;10231;47.702;9.826;2023-03-01T14:25:26;2.80;99.90
20141;DHT22;10231;47.702;9.826;2023-03-01T14:28:17;2.70;99.90
20141;DHT22;10231;47.702;9.826;2023-03-01T14:30:45;2.70;99.90
20141;DHT22;10231;47.702;9.826;2023-03-01T14:36:02;2.70;99.90
20141;DHT22;10231;47.702;9.826;2023-03-01T14:38:48;2.80;99.90
20141;DHT22;10231;47.702;9.826;2023-03-01T14:41:19;2.70;99.90
20141;DHT22;10231;47.702;9.826;2023-03-01T14:43:50;2.70;99.90
20141;DHT22;10231;47.702;9.826;2023-03-01T14:46:24;2.70;99.90
20141;DHT22;10231;47.702;9.826;2023-03-01T14:48:54;2.70;99.90
20141;DHT22;10231;47.702;9.826;2023-03-01T14:51:22;2.60;99.90
20141;DHT22;10231;47.702;9.826;2023-03-01T14:53:48;2.70;99.90
20141;DHT22;10231;47.702;9.826;2023-03-01T14:56:15;2.60;99.90
20141;DHT22;10231;47.702;9.826;2023-03-01T14:58:43;2.60;99.90
20141;DHT22;10231;47.702;9.826;2023-03-01T15:01:16;2.60;99.90
20141;DHT22;10231;47.702;9.826;2023-03-01T15:03:45;2.60;99.90
20141;DHT22;10231;47.702;9.826;2023-03-01T15:06:15;2.60;99.90
20141;DHT22;10231;47.702;9.826;2023-03-01T15:08:46;2.50;99.90
20141;DHT22;10231;47.702;9.826;2023-03-01T15:11:24;2.60;99.90
20141;DHT22;10231;47.702;9.826;2023-03-01T15:13:52;2.60;99.90
20141;DHT22;10231;47.702;9.826;2023-03-01T15:16:21;2.50;99.90
20141;DHT22;10231;47.702;9.826;2023-03-01T15:18:56;2.50;99.90
20141;DHT22;10231;47.702;9.826;2023-03-01T15:21:29;2.40;99.90
20141;DHT22;10231;47.702;9.826;2023-03-01T15:24:17;2.50;99.90
20141;DHT22;10231;47.702;9.826;2023-03-01T15:26:59;2.40;99.90
20141;DHT22;10231;47.702;9.826;2023-03-01T15:29:32;2.40;99.90
20141;DHT22;10231;47.702;9.826;2023-03-01T15:32:20;2.40;99.90
20141;DHT22;10231;47.702;9.826;2023-03-01T15:34:48;2.40;99.90
20141;DHT22;10231;47.702;9.826;2023-03-01T15:37:40;2.40;99.90
20141;DHT22;10231;47.702;9.826;2023-03-01T15:40:23;2.40;99.90
20141;DHT22;10231;47.702;9.826;2023-03-01T15:42:58;2.40;99.90
20141;DHT22;10231;47.702;9.826;2023-03-01T15:45:26;2.30;99.90
20141;DHT22;10231;47.702;9.826;2023-03-01T15:47:58;2.40;99.90
20141;DHT22;10231;47.702;9.826;2023-03-01T15:50:35;2.30;99.90
20141;DHT22;10231;47.702;9.826;2023-03-01T15:53:06;2.30;99.90
20141;DHT22;10231;47.702;9.826;2023-03-01T15:55:33;2.30;99.90
20141;DHT22;10231;47.702;9.826;2023-03-01T15:58:04;2.30;99.90
20141;DHT22;10231;47.702;9.826;2023-03-01T16:00:32;2.30;99.90
20141;DHT22;10231;47.702;9.826;2023-03-01T16:02:58;2.30;99.90
20141;DHT22;10231;47.702;9.826;2023-03-01T16:05:29;2.30;99.90
20141;DHT22;10231;47.702;9.826;2023-03-01T16:08:00;2.30;99.90
20141;DHT22;10231;47.702;9.826;2023-03-01T16:10:26;2.30;99.90
20141;DHT22;10231;47.702;9.826;2023-03-01T16:12:53;2.30;99.90
20141;DHT22;10231;47.702;9.826;2023-03-01T16:15:24;2.20;99.90
20141;DHT22;10231;47.702;9.826;2023-03-01T16:17:50;2.30;99.90
20141;DHT22;10231;47.702;9.826;2023-03-01T16:20:16;2.20;99.90
20141;DHT22;10231;47.702;9.826;2023-03-01T16:22:45;2.20;99.90
20141;DHT22;10231;47.702;9.826;2023-03-01T16:25:13;2.20;99.90
20141;DHT22;10231;47.702;9.826;2023-03-01T16:27:42;2.30;99.90
20141;DHT22;10231;47.702;9.826;2023-03-01T16:30:08;2.30;99.90
20141;DHT22;10231;47.702;9.826;2023-03-01T16:32:39;2.30;99.90
20141;DHT22;10231;47.702;9.826;2023-03-01T16:35:06;2.20;99.90
20141;DHT22;10231;47.702;9.826;2023-03-01T16:37:33;2.20;99.90
20141;DHT22;10231;47.702;9.826;2023-03-01T16:39:59;2.20;99.90
20141;DHT22;10231;47.702;9.826;2023-03-01T16:42:25;2.20;99.90
20141;DHT22;10231;47.702;9.826;2023-03-01T16:44:57;2.20;99.90
20141;DHT22;10231;47.702;9.826;2023-03-01T16:47:23;2.10;99.90
20141;DHT22;10231;47.702;9.826;2023-03-01T16:49:52;2.20;99.90
20141;DHT22;10231;47.702;9.826;2023-03-01T16:52:18;2.20;99.90
20141;DHT22;10231;47.702;9.826;2023-03-01T16:54:43;2.20;99.90
20141;DHT22;10231;47.702;9.826;2023-03-01T16:57:09;2.20;99.90
20141;DHT22;10231;47.702;9.826;2023-03-01T16:59:35;2.10;99.90
20141;DHT22;10231;47.702;9.826;2023-03-01T17:02:01;2.20;99.90
20141;DHT22;10231;47.702;9.826;2023-03-01T17:04:27;2.20;99.90
20141;DHT22;10231;47.702;9.826;2023-03-01T17:06:53;2.10;99.90
20141;DHT22;10231;47.702;9.826;2023-03-01T17:09:18;2.10;99.90
20141;DHT22;10231;47.702;9.826;2023-03-01T17:11:48;2.20;99.90
20141;DHT22;10231;47.702;9.826;2023-03-01T17:14:14;2.10;99.90
20141;DHT22;10231;47.702;9.826;2023-03-01T17:16:41;2.10;99.90
20141;DHT22;10231;47.702;9.826;2023-03-01T17:19:07;2.20;99.90
20141;DHT22;10231;47.702;9.826;2023-03-01T17:21:33;2.20;99.90
20141;DHT22;10231;47.702;9.826;2023-03-01T17:23:59;2.10;99.90
20141;DHT22;10231;47.702;9.826;2023-03-01T17:26:25;2.10;99.90
20141;DHT22;10231;47.702;9.826;2023-03-01T17:28:51;2.10;99.90
20141;DHT22;10231;47.702;9.826;2023-03-01T17:31:17;2.10;99.90
20141;DHT22;10231;47.702;9.826;2023-03-01T17:33:43;2.10;99.90